sensor_id;sensor_type;location;lat;lon;timestamp;P1;durP1;ratioP1;P2;durP2;ratioP2
20203;SDS011;10261;49.010;12.034;2024-02-21T09:10:34;4.80;;;2.08;;
20203;SDS011;10261;49.010;12.034;2024-02-21T09:11:41;3.47;;;2.05;;
20203;SDS011;10261;49.010;12.034;2024-02-21T09:12:46;4.28;;;2.10;;
20203;SDS011;10261;49.010;12.034;2024-02-21T09:13:54;5.53;;;2.20;;
20203;SDS011;10261;49.010;12.034;2024-02-21T09:14:57;3.83;;;2.42;;
20203;SDS011;10261;49.010;12.034;2024-02-21T09:16:19;5.68;;;1.45;;
20203;SDS011;10261;49.010;12.034;2024-02-21T09:17:30;5.35;;;2.05;;
20203;SDS011;10261;49.010;12.034;2024-02-21T09:34:33;5.10;;;1.90;;
20203;SDS011;10261;49.010;12.034;2024-02-21T09:35:53;5.05;;;2.00;;
20203;SDS011;10261;49.010;12.034;2024-02-21T09:37:05;2.88;;;1.50;;
20203;SDS011;10261;49.010;12.034;2024-02-21T09:38:08;5.05;;;1.60;;
20203;SDS011;10261;49.010;12.034;2024-02-21T09:39:21;4.80;;;2.20;;
20203;SDS011;10261;49.010;12.034;2024-02-21T09:40:27;4.47;;;2.40;;
20203;SDS011;10261;49.010;12.034;2024-02-21T09:41:35;8.52;;;2.08;;
20203;SDS011;10261;49.010;12.034;2024-02-21T09:42:54;4.05;;;2.67;;
20203;SDS011;10261;49.010;12.034;2024-02-21T09:44:06;4.93;;;2.10;;
20203;SDS011;10261;49.010;12.034;2024-02-21T09:45:29;5.53;;;2.10;;
20203;SDS011;10261;49.010;12.034;2024-02-21T09:47:39;6.50;;;1.92;;
20203;SDS011;10261;49.010;12.034;2024-02-21T10:02:36;6.88;;;2.25;;
20203;SDS011;10261;49.010;12.034;2024-02-21T10:03:41;5.55;;;2.40;;
20203;SDS011;10261;49.010;12.034;2024-02-21T10:04:45;5.15;;;2.35;;
20203;SDS011;10261;49.010;12.034;2024-02-21T10:06:04;6.43;;;1.85;;
20203;SDS011;10261;49.010;12.034;2024-02-21T10:07:11;4.50;;;1.90;;
20203;SDS011;10261;49.010;12.034;2024-02-21T10:08:25;3.60;;;1.48;;
20203;SDS011;10261;49.010;12.034;2024-02-21T10:09:32;3.22;;;2.40;;
20203;SDS011;10261;49.010;12.034;2024-02-21T10:10:51;5.03;;;2.40;;
20203;SDS011;10261;49.010;12.034;2024-02-21T10:12:24;8.85;;;1.45;;
20203;SDS011;10261;49.010;12.034;2024-02-21T10:13:37;7.60;;;1.58;;
20203;SDS011;10261;49.010;12.034;2024-02-21T10:14:42;3.72;;;1.75;;
20203;SDS011;10261;49.010;12.034;2024-02-21T10:15:45;3.55;;;1.45;;
20203;SDS011;10261;49.010;12.034;2024-02-21T10:16:57;2.80;;;1.75;;
20203;SDS011;10261;49.010;12.034;2024-02-21T10:18:02;8.07;;;2.53;;
20203;SDS011;10261;49.010;12.034;2024-02-21T10:19:05;4.40;;;1.30;;
20203;SDS011;10261;49.010;12.034;2024-02-21T10:20:09;6.93;;;2.05;;
20203;SDS011;10261;49.010;12.034;2024-02-21T10:21:13;3.80;;;1.73;;
20203;SDS011;10261;49.010;12.034;2024-02-21T10:22:17;5.13;;;1.80;;
20203;SDS011;10261;49.010;12.034;2024-02-21T10:23:20;2.65;;;1.63;;
20203;SDS011;10261;49.010;12.034;2024-02-21T10:24:26;8.45;;;2.20;;
20203;SDS011;10261;49.010;12.034;2024-02-21T10:25:31;4.35;;;1.40;;
20203;SDS011;10261;49.010;12.034;2024-02-21T10:26:35;2.97;;;1.80;;
20203;SDS011;10261;49.010;12.034;2024-02-21T10:28:08;3.88;;;1.45;;
20203;SDS011;10261;49.010;12.034;2024-02-21T10:29:55;5.57;;;1.98;;
20203;SDS011;10261;49.010;12.034;2024-02-21T10:31:01;2.90;;;1.80;;
20203;SDS011;10261;49.010;12.034;2024-02-21T10:32:16;1.92;;;1.42;;
20203;SDS011;10261;49.010;12.034;2024-02-21T10:33:20;3.97;;;1.83;;
20203;SDS011;10261;49.010;12.034;2024-02-21T10:34:30;8.23;;;1.70;;
20203;SDS011;10261;49.010;12.034;2024-02-21T10:38:08;2.42;;;1.30;;
20203;SDS011;10261;49.010;12.034;2024-02-21T10:39:48;2.63;;;1.50;;
20203;SDS011;10261;49.010;12.034;2024-02-21T10:41:19;4.85;;;1.92;;
20203;SDS011;10261;49.010;12.034;2024-02-21T10:42:44;5.20;;;1.50;;
20203;SDS011;10261;49.010;12.034;2024-02-21T10:44:08;2.20;;;1.40;;
20203;SDS011;10261;49.010;12.034;2024-02-21T10:45:12;6.13;;;1.88;;
20203;SDS011;10261;49.010;12.034;2024-02-21T10:46:18;3.40;;;1.42;;
20203;SDS011;10261;49.010;12.034;2024-02-21T10:48:57;3.58;;;1.55;;
20203;SDS011;10261;49.010;12.034;2024-02-21T10:50:06;3.38;;;1.40;;
20203;SDS011;10261;49.010;12.034;2024-02-21T10:51:14;5.20;;;1.95;;
20203;SDS011;10261;49.010;12.034;2024-02-21T10:52:28;3.45;;;1.42;;
20203;SDS011;10261;49.010;12.034;2024-02-21T10:53:41;6.00;;;1.70;;
20203;SDS011;10261;49.010;12.034;2024-02-21T10:54:51;3.70;;;1.77;;
20203;SDS011;10261;49.010;12.034;2024-02-21T10:56:01;6.00;;;1.30;;
20203;SDS011;10261;49.010;12.034;2024-02-21T10:57:16;8.52;;;1.60;;
20203;SDS011;10261;49.010;12.034;2024-02-21T10:58:22;6.68;;;1.70;;
20203;SDS011;10261;49.010;12.034;2024-02-21T10:59:44;5.10;;;1.33;;
20203;SDS011;10261;49.010;12.034;2024-02-21T11:00:51;2.65;;;1.27;;
20203;SDS011;10261;49.010;12.034;2024-02-21T11:01:54;4.13;;;1.35;;
20203;SDS011;10261;49.010;12.034;2024-02-21T11:03:01;2.72;;;1.63;;
20203;SDS011;10261;49.010;12.034;2024-02-21T11:04:05;4.20;;;1.33;;
20203;SDS011;10261;49.010;12.034;2024-02-21T11:05:51;3.65;;;1.42;;
20203;SDS011;10261;49.010;12.034;2024-02-21T11:07:16;3.05;;;1.13;;
20203;SDS011;10261;49.010;12.034;2024-02-21T11:08:34;3.10;;;1.30;;
20203;SDS011;10261;49.010;12.034;2024-02-21T11:10:03;2.08;;;1.17;;
20203;SDS011;10261;49.010;12.034;2024-02-21T11:13:05;3.17;;;1.30;;
20203;SDS011;10261;49.010;12.034;2024-02-21T11:14:22;7.72;;;2.28;;
20203;SDS011;10261;49.010;12.034;2024-02-21T11:15:46;6.05;;;2.03;;
20203;SDS011;10261;49.010;12.034;2024-02-21T11:16:49;3.90;;;1.50;;
20203;SDS011;10261;49.010;12.034;2024-02-21T11:17:56;5.03;;;1.42;;
20203;SDS011;10261;49.010;12.034;2024-02-21T11:19:20;6.05;;;1.77;;
20203;SDS011;10261;49.010;12.034;2024-02-21T11:25:10;7.10;;;1.45;;
20203;SDS011;10261;49.010;12.034;2024-02-21T11:26:17;3.85;;;1.30;;
20203;SDS011;10261;49.010;12.034;2024-02-21T11:27:21;2.88;;;1.73;;
20203;SDS011;10261;49.010;12.034;2024-02-21T11:28:29;4.10;;;1.58;;
20203;SDS011;10261;49.010;12.034;2024-02-21T11:29:31;2.38;;;1.30;;
20203;SDS011;10261;49.010;12.034;2024-02-21T11:30:36;5.50;;;1.65;;
20203;SDS011;10261;49.010;12.034;2024-02-21T11:31:40;2.42;;;1.40;;
20203;SDS011;10261;49.010;12.034;2024-02-21T11:32:43;2.63;;;1.50;;
20203;SDS011;10261;49.010;12.034;2024-02-21T11:33:49;4.32;;;1.50;;
20203;SDS011;10261;49.010;12.034;2024-02-21T11:34:56;3.78;;;1.60;;
20203;SDS011;10261;49.010;12.034;2024-02-21T11:36:04;4.18;;;1.50;;
20203;SDS011;10261;49.010;12.034;2024-02-21T11:37:12;2.00;;;1.15;;
20203;SDS011;10261;49.010;12.034;2024-02-21T11:38:17;2.47;;;1.10;;
20203;SDS011;10261;49.010;12.034;2024-02-21T11:39:20;7.80;;;1.80;;
20203;SDS011;10261;49.010;12.034;2024-02-21T11:40:24;4.70;;;1.40;;
20203;SDS011;10261;49.010;12.034;2024-02-21T11:41:26;2.78;;;1.35;;
20203;SDS011;10261;49.010;12.034;2024-02-21T11:42:30;3.05;;;1.60;;
20203;SDS011;10261;49.010;12.034;2024-02-21T11:43:33;1.70;;;1.00;;
20203;SDS011;10261;49.010;12.034;2024-02-21T11:44:37;5.53;;;1.65;;
20203;SDS011;10261;49.010;12.034;2024-02-21T11:45:40;5.30;;;1.67;;
20203;SDS011;10261;49.010;12.034;2024-02-21T11:46:43;1.42;;;0.90;;
20203;SDS011;10261;49.010;12.034;2024-02-21T11:47:45;6.05;;;1.50;;
20203;SDS011;10261;49.010;12.034;2024-02-21T11:48:51;4.03;;;1.50;;
20203;SDS011;10261;49.010;12.034;2024-02-21T11:49:53;5.25;;;1.80;;
20203;SDS011;10261;49.010;12.034;2024-02-21T11:50:56;2.05;;;1.17;;
20203;SDS011;10261;49.010;12.034;2024-02-21T11:51:59;4.70;;;1.20;;
20203;SDS011;10261;49.010;12.034;2024-02-21T11:53:05;2.10;;;1.27;;
20203;SDS011;10261;49.010;12.034;2024-02-21T11:54:08;2.08;;;1.17;;
20203;SDS011;10261;49.010;12.034;2024-02-21T11:55:11;4.50;;;1.30;;
20203;SDS011;10261;49.010;12.034;2024-02-21T11:56:13;4.32;;;1.60;;
20203;SDS011;10261;49.010;12.034;2024-02-21T11:57:16;2.65;;;1.00;;
20203;SDS011;10261;49.010;12.034;2024-02-21T11:58:19;4.40;;;2.10;;
20203;SDS011;10261;49.010;12.034;2024-02-21T11:59:22;2.22;;;1.08;;
20203;SDS011;10261;49.010;12.034;2024-02-21T12:00:25;1.98;;;1.40;;
20203;SDS011;10261;49.010;12.034;2024-02-21T12:01:28;5.32;;;1.88;;
20203;SDS011;10261;49.010;12.034;2024-02-21T12:02:31;2.50;;;1.30;;
20203;SDS011;10261;49.010;12.034;2024-02-21T12:03:34;2.35;;;1.42;;
20203;SDS011;10261;49.010;12.034;2024-02-21T12:04:38;4.10;;;1.80;;
20203;SDS011;10261;49.010;12.034;2024-02-21T12:05:42;2.08;;;1.13;;
20203;SDS011;10261;49.010;12.034;2024-02-21T12:06:44;2.65;;;0.90;;
20203;SDS011;10261;49.010;12.034;2024-02-21T12:07:47;11.25;;;1.45;;
20203;SDS011;10261;49.010;12.034;2024-02-21T12:08:50;4.57;;;1.60;;
20203;SDS011;10261;49.010;12.034;2024-02-21T12:09:52;3.88;;;1.90;;
20203;SDS011;10261;49.010;12.034;2024-02-21T12:10:54;4.40;;;1.20;;
20203;SDS011;10261;49.010;12.034;2024-02-21T12:11:58;6.72;;;1.40;;
20203;SDS011;10261;49.010;12.034;2024-02-21T12:13:07;6.55;;;1.90;;
20203;SDS011;10261;49.010;12.034;2024-02-21T12:14:09;5.45;;;1.30;;
20203;SDS011;10261;49.010;12.034;2024-02-21T12:15:13;2.00;;;0.95;;
20203;SDS011;10261;49.010;12.034;2024-02-21T12:16:15;3.85;;;1.35;;
20203;SDS011;10261;49.010;12.034;2024-02-21T12:17:24;3.85;;;1.15;;
20203;SDS011;10261;49.010;12.034;2024-02-21T12:18:26;1.80;;;1.02;;
20203;SDS011;10261;49.010;12.034;2024-02-21T12:19:30;7.85;;;1.80;;
20203;SDS011;10261;49.010;12.034;2024-02-21T12:20:36;3.40;;;1.55;;
20203;SDS011;10261;49.010;12.034;2024-02-21T12:21:39;3.70;;;1.58;;
20203;SDS011;10261;49.010;12.034;2024-02-21T12:22:41;9.07;;;1.38;;
20203;SDS011;10261;49.010;12.034;2024-02-21T12:23:45;2.45;;;1.30;;
20203;SDS011;10261;49.010;12.034;2024-02-21T12:24:48;2.75;;;1.48;;
20203;SDS011;10261;49.010;12.034;2024-02-21T12:25:53;4.93;;;2.92;;
20203;SDS011;10261;49.010;12.034;2024-02-21T12:26:56;2.63;;;1.17;;
20203;SDS011;10261;49.010;12.034;2024-02-21T12:28:00;3.03;;;1.38;;
20203;SDS011;10261;49.010;12.034;2024-02-21T12:29:02;3.25;;;1.23;;
20203;SDS011;10261;49.010;12.034;2024-02-21T12:30:06;1.90;;;1.00;;
20203;SDS011;10261;49.010;12.034;2024-02-21T12:31:11;3.13;;;1.52;;
20203;SDS011;10261;49.010;12.034;2024-02-21T12:32:15;5.47;;;1.10;;
20203;SDS011;10261;49.010;12.034;2024-02-21T12:33:17;1.80;;;0.95;;
20203;SDS011;10261;49.010;12.034;2024-02-21T12:34:20;1.98;;;1.10;;
20203;SDS011;10261;49.010;12.034;2024-02-21T12:35:40;3.35;;;1.30;;
20203;SDS011;10261;49.010;12.034;2024-02-21T12:36:44;7.88;;;1.00;;
20203;SDS011;10261;49.010;12.034;2024-02-21T12:37:48;3.88;;;2.15;;
20203;SDS011;10261;49.010;12.034;2024-02-21T12:38:52;4.22;;;1.33;;
20203;SDS011;10261;49.010;12.034;2024-02-21T12:39:54;1.75;;;0.90;;
20203;SDS011;10261;49.010;12.034;2024-02-21T12:40:59;2.42;;;1.25;;
20203;SDS011;10261;49.010;12.034;2024-02-21T12:42:04;4.65;;;1.13;;
20203;SDS011;10261;49.010;12.034;2024-02-21T12:43:10;5.90;;;1.20;;
20203;SDS011;10261;49.010;12.034;2024-02-21T12:44:12;3.38;;;1.33;;
20203;SDS011;10261;49.010;12.034;2024-02-21T12:45:15;3.03;;;1.30;;
20203;SDS011;10261;49.010;12.034;2024-02-21T12:46:18;1.35;;;1.10;;
20203;SDS011;10261;49.010;12.034;2024-02-21T12:47:21;1.10;;;0.85;;
20203;SDS011;10261;49.010;12.034;2024-02-21T12:48:26;2.35;;;0.95;;
20203;SDS011;10261;49.010;12.034;2024-02-21T12:49:28;2.55;;;1.10;;
20203;SDS011;10261;49.010;12.034;2024-02-21T12:50:32;3.67;;;1.40;;
20203;SDS011;10261;49.010;12.034;2024-02-21T12:51:36;4.35;;;1.30;;
20203;SDS011;10261;49.010;12.034;2024-02-21T12:52:40;1.55;;;1.27;;
20203;SDS011;10261;49.010;12.034;2024-02-21T12:53:43;2.45;;;1.13;;
20203;SDS011;10261;49.010;12.034;2024-02-21T12:54:46;2.35;;;1.02;;
20203;SDS011;10261;49.010;12.034;2024-02-21T12:55:48;1.63;;;1.10;;
20203;SDS011;10261;49.010;12.034;2024-02-21T12:56:51;1.23;;;0.85;;
20203;SDS011;10261;49.010;12.034;2024-02-21T12:57:54;2.10;;;1.05;;
20203;SDS011;10261;49.010;12.034;2024-02-21T12:58:58;1.90;;;0.85;;
20203;SDS011;10261;49.010;12.034;2024-02-21T13:00:00;5.78;;;2.13;;
20203;SDS011;10261;49.010;12.034;2024-02-21T13:01:04;4.20;;;1.30;;
20203;SDS011;10261;49.010;12.034;2024-02-21T13:02:07;4.40;;;1.73;;
20203;SDS011;10261;49.010;12.034;2024-02-21T13:03:11;3.05;;;1.40;;
20203;SDS011;10261;49.010;12.034;2024-02-21T13:04:17;2.70;;;1.20;;
20203;SDS011;10261;49.010;12.034;2024-02-21T13:05:20;3.42;;;1.30;;
20203;SDS011;10261;49.010;12.034;2024-02-21T13:06:23;3.80;;;1.52;;
20203;SDS011;10261;49.010;12.034;2024-02-21T13:07:31;2.55;;;1.17;;
20203;SDS011;10261;49.010;12.034;2024-02-21T13:08:35;4.20;;;1.25;;
20203;SDS011;10261;49.010;12.034;2024-02-21T13:09:37;3.95;;;1.00;;
20203;SDS011;10261;49.010;12.034;2024-02-21T13:10:40;3.03;;;1.08;;
20203;SDS011;10261;49.010;12.034;2024-02-21T13:11:43;2.92;;;1.40;;
20203;SDS011;10261;49.010;12.034;2024-02-21T13:12:47;5.10;;;1.42;;
20203;SDS011;10261;49.010;12.034;2024-02-21T13:13:49;2.70;;;1.20;;
20203;SDS011;10261;49.010;12.034;2024-02-21T13:14:53;2.45;;;1.70;;
20203;SDS011;10261;49.010;12.034;2024-02-21T13:15:56;1.73;;;1.00;;
20203;SDS011;10261;49.010;12.034;2024-02-21T13:17:02;1.75;;;1.20;;
20203;SDS011;10261;49.010;12.034;2024-02-21T13:18:05;3.13;;;1.02;;
20203;SDS011;10261;49.010;12.034;2024-02-21T13:19:08;4.80;;;1.10;;
20203;SDS011;10261;49.010;12.034;2024-02-21T13:20:11;2.00;;;1.40;;
20203;SDS011;10261;49.010;12.034;2024-02-21T13:21:15;3.10;;;2.20;;
20203;SDS011;10261;49.010;12.034;2024-02-21T13:22:17;9.63;;;3.33;;
20203;SDS011;10261;49.010;12.034;2024-02-21T13:23:25;3.85;;;1.65;;
20203;SDS011;10261;49.010;12.034;2024-02-21T13:24:27;6.22;;;4.38;;
20203;SDS011;10261;49.010;12.034;2024-02-21T13:25:32;3.45;;;2.90;;
20203;SDS011;10261;49.010;12.034;2024-02-21T13:26:34;4.15;;;1.73;;
20203;SDS011;10261;49.010;12.034;2024-02-21T13:27:37;2.25;;;1.48;;
20203;SDS011;10261;49.010;12.034;2024-02-21T13:28:40;2.38;;;1.58;;
20203;SDS011;10261;49.010;12.034;2024-02-21T13:29:42;5.85;;;1.17;;
20203;SDS011;10261;49.010;12.034;2024-02-21T13:30:46;3.42;;;2.13;;
20203;SDS011;10261;49.010;12.034;2024-02-21T13:31:49;6.43;;;2.20;;
20203;SDS011;10261;49.010;12.034;2024-02-21T13:32:52;2.38;;;1.10;;
20203;SDS011;10261;49.010;12.034;2024-02-21T13:33:56;3.65;;;1.63;;
20203;SDS011;10261;49.010;12.034;2024-02-21T13:34:59;2.08;;;1.88;;
20203;SDS011;10261;49.010;12.034;2024-02-21T13:36:02;4.32;;;2.58;;
20203;SDS011;10261;49.010;12.034;2024-02-21T13:37:06;7.35;;;1.65;;
20203;SDS011;10261;49.010;12.034;2024-02-21T13:38:11;2.20;;;1.42;;
20203;SDS011;10261;49.010;12.034;2024-02-21T13:39:17;2.90;;;1.98;;
20203;SDS011;10261;49.010;12.034;2024-02-21T13:40:21;2.78;;;1.60;;
20203;SDS011;10261;49.010;12.034;2024-02-21T13:41:24;3.20;;;1.23;;
20203;SDS011;10261;49.010;12.034;2024-02-21T13:42:26;1.27;;;0.80;;
20203;SDS011;10261;49.010;12.034;2024-02-21T13:43:32;3.50;;;1.10;;
20203;SDS011;10261;49.010;12.034;2024-02-21T13:44:34;2.67;;;1.60;;
20203;SDS011;10261;49.010;12.034;2024-02-21T13:45:38;4.97;;;1.45;;
20203;SDS011;10261;49.010;12.034;2024-02-21T13:46:43;4.82;;;1.90;;
20203;SDS011;10261;49.010;12.034;2024-02-21T13:47:46;2.58;;;1.73;;
20203;SDS011;10261;49.010;12.034;2024-02-21T13:48:49;4.30;;;1.90;;
20203;SDS011;10261;49.010;12.034;2024-02-21T13:49:53;4.68;;;1.58;;
20203;SDS011;10261;49.010;12.034;2024-02-21T13:50:55;2.75;;;1.42;;
20203;SDS011;10261;49.010;12.034;2024-02-21T13:51:59;2.80;;;1.50;;
20203;SDS011;10261;49.010;12.034;2024-02-21T13:53:01;5.05;;;1.27;;
20203;SDS011;10261;49.010;12.034;2024-02-21T13:54:05;2.25;;;1.75;;
20203;SDS011;10261;49.010;12.034;2024-02-21T13:55:12;2.47;;;1.80;;
20203;SDS011;10261;49.010;12.034;2024-02-21T13:56:15;3.38;;;1.23;;
20203;SDS011;10261;49.010;12.034;2024-02-21T13:57:18;2.05;;;1.20;;
20203;SDS011;10261;49.010;12.034;2024-02-21T13:58:24;2.20;;;1.00;;
20203;SDS011;10261;49.010;12.034;2024-02-21T13:59:28;3.33;;;1.60;;
20203;SDS011;10261;49.010;12.034;2024-02-21T14:00:31;2.88;;;1.65;;
20203;SDS011;10261;49.010;12.034;2024-02-21T14:01:35;5.60;;;2.17;;
20203;SDS011;10261;49.010;12.034;2024-02-21T14:02:38;2.88;;;1.80;;
20203;SDS011;10261;49.010;12.034;2024-02-21T14:03:41;2.85;;;1.63;;
20203;SDS011;10261;49.010;12.034;2024-02-21T14:04:44;4.13;;;1.77;;
20203;SDS011;10261;49.010;12.034;2024-02-21T14:05:46;2.15;;;1.38;;
20203;SDS011;10261;49.010;12.034;2024-02-21T14:06:50;3.88;;;1.10;;
20203;SDS011;10261;49.010;12.034;2024-02-21T14:07:53;6.05;;;2.10;;
20203;SDS011;10261;49.010;12.034;2024-02-21T14:08:58;4.43;;;1.40;;
20203;SDS011;10261;49.010;12.034;2024-02-21T14:10:00;3.85;;;1.52;;
20203;SDS011;10261;49.010;12.034;2024-02-21T14:11:05;3.53;;;1.00;;
20203;SDS011;10261;49.010;12.034;2024-02-21T14:12:08;1.95;;;1.17;;
20203;SDS011;10261;49.010;12.034;2024-02-21T14:13:12;2.08;;;1.60;;
20203;SDS011;10261;49.010;12.034;2024-02-21T14:14:14;4.70;;;1.30;;
20203;SDS011;10261;49.010;12.034;2024-02-21T14:15:18;2.00;;;1.45;;
20203;SDS011;10261;49.010;12.034;2024-02-21T14:16:20;3.20;;;1.90;;
20203;SDS011;10261;49.010;12.034;2024-02-21T14:17:23;3.45;;;1.30;;
20203;SDS011;10261;49.010;12.034;2024-02-21T14:18:26;4.50;;;1.52;;
20203;SDS011;10261;49.010;12.034;2024-02-21T14:19:30;3.63;;;1.65;;
20203;SDS011;10261;49.010;12.034;2024-02-21T14:20:32;4.80;;;1.50;;
20203;SDS011;10261;49.010;12.034;2024-02-21T14:21:35;2.35;;;1.77;;
20203;SDS011;10261;49.010;12.034;2024-02-21T14:22:38;2.33;;;1.33;;
20203;SDS011;10261;49.010;12.034;2024-02-21T14:23:42;2.90;;;2.10;;
20203;SDS011;10261;49.010;12.034;2024-02-21T14:24:45;5.47;;;1.88;;
20203;SDS011;10261;49.010;12.034;2024-02-21T14:25:49;3.80;;;1.48;;
20203;SDS011;10261;49.010;12.034;2024-02-21T14:26:57;4.38;;;1.70;;
20203;SDS011;10261;49.010;12.034;2024-02-21T14:28:02;3.78;;;2.00;;
20203;SDS011;10261;49.010;12.034;2024-02-21T14:29:05;3.70;;;1.80;;
20203;SDS011;10261;49.010;12.034;2024-02-21T14:30:08;7.18;;;1.85;;
20203;SDS011;10261;49.010;12.034;2024-02-21T14:31:12;5.95;;;1.55;;
20203;SDS011;10261;49.010;12.034;2024-02-21T14:32:16;2.38;;;1.90;;
20203;SDS011;10261;49.010;12.034;2024-02-21T14:33:18;6.03;;;1.83;;
20203;SDS011;10261;49.010;12.034;2024-02-21T14:34:21;4.85;;;1.95;;
20203;SDS011;10261;49.010;12.034;2024-02-21T14:35:24;2.85;;;1.38;;
20203;SDS011;10261;49.010;12.034;2024-02-21T14:36:28;2.20;;;1.08;;
20203;SDS011;10261;49.010;12.034;2024-02-21T14:37:30;4.47;;;1.30;;
20203;SDS011;10261;49.010;12.034;2024-02-21T14:38:32;3.25;;;1.33;;
20203;SDS011;10261;49.010;12.034;2024-02-21T14:39:36;5.25;;;1.92;;
20203;SDS011;10261;49.010;12.034;2024-02-21T14:40:39;2.95;;;1.30;;
20203;SDS011;10261;49.010;12.034;2024-02-21T14:41:41;3.60;;;1.27;;
20203;SDS011;10261;49.010;12.034;2024-02-21T14:42:48;5.72;;;1.45;;
20203;SDS011;10261;49.010;12.034;2024-02-21T14:43:51;3.20;;;1.20;;
20203;SDS011;10261;49.010;12.034;2024-02-21T14:45:03;5.57;;;1.60;;
20203;SDS011;10261;49.010;12.034;2024-02-21T14:46:06;3.00;;;1.60;;
20203;SDS011;10261;49.010;12.034;2024-02-21T14:47:18;3.03;;;1.27;;
20203;SDS011;10261;49.010;12.034;2024-02-21T14:48:20;3.55;;;1.35;;
20203;SDS011;10261;49.010;12.034;2024-02-21T14:49:23;3.95;;;1.17;;
20203;SDS011;10261;49.010;12.034;2024-02-21T14:50:28;1.50;;;1.30;;
20203;SDS011;10261;49.010;12.034;2024-02-21T14:51:32;3.85;;;1.23;;
20203;SDS011;10261;49.010;12.034;2024-02-21T14:52:34;2.30;;;1.35;;
20203;SDS011;10261;49.010;12.034;2024-02-21T14:53:38;8.18;;;1.60;;
20203;SDS011;10261;49.010;12.034;2024-02-21T14:54:40;3.60;;;1.77;;
20203;SDS011;10261;49.010;12.034;2024-02-21T14:55:47;4.07;;;1.02;;
20203;SDS011;10261;49.010;12.034;2024-02-21T14:56:51;3.25;;;1.38;;
20203;SDS011;10261;49.010;12.034;2024-02-21T14:57:57;3.83;;;1.38;;
20203;SDS011;10261;49.010;12.034;2024-02-21T14:59:01;1.33;;;0.93;;
20203;SDS011;10261;49.010;12.034;2024-02-21T15:00:18;4.28;;;1.00;;
20203;SDS011;10261;49.010;12.034;2024-02-21T15:01:22;4.10;;;1.55;;
20203;SDS011;10261;49.010;12.034;2024-02-21T15:02:26;4.32;;;0.95;;
20203;SDS011;10261;49.010;12.034;2024-02-21T15:03:30;4.60;;;1.10;;
20203;SDS011;10261;49.010;12.034;2024-02-21T15:04:33;2.60;;;1.10;;
20203;SDS011;10261;49.010;12.034;2024-02-21T15:05:36;2.45;;;1.38;;
20203;SDS011;10261;49.010;12.034;2024-02-21T15:06:41;5.82;;;1.58;;
20203;SDS011;10261;49.010;12.034;2024-02-21T15:07:44;3.35;;;1.33;;
20203;SDS011;10261;49.010;12.034;2024-02-21T15:08:47;1.70;;;1.00;;
20203;SDS011;10261;49.010;12.034;2024-02-21T15:09:50;4.18;;;1.50;;
20203;SDS011;10261;49.010;12.034;2024-02-21T15:10:53;2.40;;;1.17;;
20203;SDS011;10261;49.010;12.034;2024-02-21T15:11:55;3.75;;;1.30;;
20203;SDS011;10261;49.010;12.034;2024-02-21T15:13:00;2.45;;;0.90;;
20203;SDS011;10261;49.010;12.034;2024-02-21T15:14:02;4.78;;;1.70;;
20203;SDS011;10261;49.010;12.034;2024-02-21T15:15:06;4.05;;;2.20;;
20203;SDS011;10261;49.010;12.034;2024-02-21T15:16:10;3.50;;;1.90;;
20203;SDS011;10261;49.010;12.034;2024-02-21T15:17:13;6.10;;;2.85;;
20203;SDS011;10261;49.010;12.034;2024-02-21T15:18:16;6.82;;;2.30;;
20203;SDS011;10261;49.010;12.034;2024-02-21T15:19:19;3.30;;;1.65;;
20203;SDS011;10261;49.010;12.034;2024-02-21T15:20:22;3.38;;;1.30;;
20203;SDS011;10261;49.010;12.034;2024-02-21T15:21:26;3.92;;;1.30;;
20203;SDS011;10261;49.010;12.034;2024-02-21T15:22:28;4.53;;;1.55;;
20203;SDS011;10261;49.010;12.034;2024-02-21T15:23:32;3.90;;;1.75;;
20203;SDS011;10261;49.010;12.034;2024-02-21T15:24:37;4.95;;;2.17;;
20203;SDS011;10261;49.010;12.034;2024-02-21T15:25:44;4.07;;;1.30;;
20203;SDS011;10261;49.010;12.034;2024-02-21T15:26:46;4.63;;;1.63;;
20203;SDS011;10261;49.010;12.034;2024-02-21T15:27:49;2.42;;;1.60;;
20203;SDS011;10261;49.010;12.034;2024-02-21T15:28:53;4.22;;;2.00;;
20203;SDS011;10261;49.010;12.034;2024-02-21T15:29:58;3.55;;;1.60;;
20203;SDS011;10261;49.010;12.034;2024-02-21T15:31:02;4.82;;;1.30;;
20203;SDS011;10261;49.010;12.034;2024-02-21T15:32:06;5.70;;;1.48;;
20203;SDS011;10261;49.010;12.034;2024-02-21T15:33:08;2.58;;;1.40;;
20203;SDS011;10261;49.010;12.034;2024-02-21T15:34:12;4.32;;;1.00;;
20203;SDS011;10261;49.010;12.034;2024-02-21T15:35:17;2.05;;;1.23;;
20203;SDS011;10261;49.010;12.034;2024-02-21T15:36:23;4.30;;;1.50;;
20203;SDS011;10261;49.010;12.034;2024-02-21T15:37:25;2.08;;;1.15;;
20203;SDS011;10261;49.010;12.034;2024-02-21T15:38:31;3.20;;;1.50;;
20203;SDS011;10261;49.010;12.034;2024-02-21T15:39:34;3.20;;;2.20;;
20203;SDS011;10261;49.010;12.034;2024-02-21T15:40:38;3.92;;;2.20;;
20203;SDS011;10261;49.010;12.034;2024-02-21T15:41:41;4.22;;;2.10;;
20203;SDS011;10261;49.010;12.034;2024-02-21T15:42:43;6.00;;;3.20;;
20203;SDS011;10261;49.010;12.034;2024-02-21T15:43:49;3.45;;;2.05;;
20203;SDS011;10261;49.010;12.034;2024-02-21T15:44:53;5.50;;;1.70;;
20203;SDS011;10261;49.010;12.034;2024-02-21T15:45:57;5.88;;;2.30;;
20203;SDS011;10261;49.010;12.034;2024-02-21T15:47:00;5.22;;;2.75;;
20203;SDS011;10261;49.010;12.034;2024-02-21T15:48:04;8.88;;;2.58;;
20203;SDS011;10261;49.010;12.034;2024-02-21T15:49:07;6.50;;;1.98;;
20203;SDS011;10261;49.010;12.034;2024-02-21T15:50:10;7.35;;;3.08;;
20203;SDS011;10261;49.010;12.034;2024-02-21T15:51:13;7.10;;;2.40;;
20203;SDS011;10261;49.010;12.034;2024-02-21T15:52:16;3.65;;;1.95;;
20203;SDS011;10261;49.010;12.034;2024-02-21T15:53:18;4.30;;;2.63;;
20203;SDS011;10261;49.010;12.034;2024-02-21T15:54:22;4.95;;;3.13;;
20203;SDS011;10261;49.010;12.034;2024-02-21T15:55:29;5.20;;;2.97;;
20203;SDS011;10261;49.010;12.034;2024-02-21T15:56:35;8.50;;;4.65;;
20203;SDS011;10261;49.010;12.034;2024-02-21T15:57:38;10.75;;;4.95;;
20203;SDS011;10261;49.010;12.034;2024-02-21T15:58:42;7.57;;;3.88;;
20203;SDS011;10261;49.010;12.034;2024-02-21T15:59:54;6.55;;;3.75;;
20203;SDS011;10261;49.010;12.034;2024-02-21T16:00:57;4.55;;;2.60;;
20203;SDS011;10261;49.010;12.034;2024-02-21T16:02:00;4.55;;;3.13;;
20203;SDS011;10261;49.010;12.034;2024-02-21T16:03:04;6.78;;;3.00;;
20203;SDS011;10261;49.010;12.034;2024-02-21T16:04:09;4.75;;;3.33;;
20203;SDS011;10261;49.010;12.034;2024-02-21T16:05:13;10.20;;;3.90;;
20203;SDS011;10261;49.010;12.034;2024-02-21T16:06:15;8.38;;;3.70;;
20203;SDS011;10261;49.010;12.034;2024-02-21T16:07:21;10.10;;;5.82;;
20203;SDS011;10261;49.010;12.034;2024-02-21T16:08:23;20.50;;;11.05;;
20203;SDS011;10261;49.010;12.034;2024-02-21T16:09:25;25.73;;;14.40;;
20203;SDS011;10261;49.010;12.034;2024-02-21T16:10:30;16.98;;;10.07;;
20203;SDS011;10261;49.010;12.034;2024-02-21T16:11:32;7.60;;;3.63;;
20203;SDS011;10261;49.010;12.034;2024-02-21T16:12:36;4.55;;;3.00;;
20203;SDS011;10261;49.010;12.034;2024-02-21T16:13:40;3.20;;;1.83;;
20203;SDS011;10261;49.010;12.034;2024-02-21T16:14:43;2.08;;;1.13;;
20203;SDS011;10261;49.010;12.034;2024-02-21T16:15:51;4.63;;;1.70;;
20203;SDS011;10261;49.010;12.034;2024-02-21T16:16:54;4.13;;;1.38;;
20203;SDS011;10261;49.010;12.034;2024-02-21T16:17:58;6.03;;;1.65;;
20203;SDS011;10261;49.010;12.034;2024-02-21T16:19:01;4.65;;;1.98;;
20203;SDS011;10261;49.010;12.034;2024-02-21T16:20:07;7.15;;;2.50;;
20203;SDS011;10261;49.010;12.034;2024-02-21T16:21:15;4.28;;;1.98;;